Archival Weather

Heathrow

London, United Kingdom (EGLL)

Report from: Tuesday, September 19, 2023 10:20 AM BST
Current time: Monday, June 17, 2024 12:13 PM BST

Current weather – Weather history – Daily summaries
Weather forecast

Present weatherLight rain
Temperature16.0°C (60.8°F)
Dew point14.0°C (57.2°F)
Winds 19 kts (9.8 m/s, 21.9 mph) Southwest (230°)
Visibility6.2 mi. (10 km)
Clouds Ceiling: Broken clouds 1,400 ft. (427 m)
Broken clouds 1,900 ft. (579 m)
Overcast 3,000 ft. (914 m)
Altimeter29.68 in.Hg (1005 mB)
Relative humidity88 %
Density altitude620 ft. (189 m)
Remarks Fully automated report
Flight conditions Marginal Visual Meteorological Conditions
Raw dataEGLL 190920Z AUTO 23019KT 9999 -RA BKN014 BKN019 OVC030 16/14 Q1005
An error has occurred. This application may no longer respond until reloaded. Reload 🗙